Time;durP1;ratioP1;P1;durP2;ratioP2;P2;SDS_P1;SDS_P2;PMS_P1;PMS_P2;Temp;Humidity;BMP_temperature;BMP_pressure;BME280_temperature;BME280_humidity;BME280_pressure;Samples;Min_cycle;Max_cycle;Signal;HPM_P1;HPM_P2
2023/08/03 00:02:02;;;;;;;5.67;1.77;;;19.20;99.90;;;;;;5097034;28;20184;-87
2023/08/03 00:04:28;;;;;;;4.67;1.93;;;19.10;99.90;;;;;;5099206;28;20184;-88
2023/08/03 00:06:53;;;;;;;2.67;2.33;;;18.80;99.90;;;;;;5097709;27;20246;-87
2023/08/03 00:09:19;;;;;;;2.63;1.33;;;19.60;99.90;;;;;;5103595;28;20699;-86
2023/08/03 00:11:44;;;;;;;5.40;2.00;;;18.70;99.90;;;;;;5090597;28;20187;-87
2023/08/03 00:14:10;;;;;;;2.73;1.90;;;19.20;99.90;;;;;;5085370;28;20223;-86
2023/08/03 00:16:36;;;;;;;2.73;1.70;;;19.20;99.90;;;;;;5097432;28;20203;-87
2023/08/03 00:19:01;;;;;;;4.10;1.95;;;19.50;99.90;;;;;;5090569;28;20177;-87
2023/08/03 00:21:27;;;;;;;2.90;1.63;;;19.30;99.90;;;;;;5087173;28;20545;-87
2023/08/03 00:23:52;;;;;;;3.57;1.57;;;19.70;99.90;;;;;;5089607;28;20180;-87
2023/08/03 00:26:18;;;;;;;4.73;1.60;;;19.30;99.90;;;;;;5089983;28;20283;-87
2023/08/03 00:28:43;;;;;;;6.50;2.03;;;19.40;99.90;;;;;;5085251;28;20680;-87
2023/08/03 00:31:09;;;;;;;3.67;1.60;;;19.60;99.90;;;;;;5092930;28;20207;-86
2023/08/03 00:33:34;;;;;;;2.70;1.60;;;19.80;99.90;;;;;;5087190;28;20235;-87
2023/08/03 00:36:00;;;;;;;2.97;1.77;;;19.80;99.90;;;;;;5083520;28;20314;-87
2023/08/03 00:38:25;;;;;;;5.40;2.50;;;19.50;99.90;;;;;;5088361;28;20198;-87
2023/08/03 00:40:52;;;;;;;4.00;2.00;;;19.70;99.90;;;;;;5086236;28;20191;-87
2023/08/03 00:43:17;;;;;;;3.58;1.98;;;19.70;99.90;;;;;;5088864;28;20715;-87
2023/08/03 00:45:43;;;;;;;3.13;2.00;;;19.50;99.90;;;;;;5090514;28;20259;-87
2023/08/03 00:48:08;;;;;;;4.90;2.07;;;19.90;99.90;;;;;;5091181;28;20238;-87
2023/08/03 00:50:34;;;;;;;3.83;1.87;;;19.50;99.90;;;;;;5089281;28;20654;-86
2023/08/03 00:53:01;;;;;;;6.40;1.88;;;19.40;99.90;;;;;;5068669;28;20204;-86
2023/08/03 00:55:27;;;;;;;3.60;2.33;;;19.80;99.90;;;;;;5092829;28;20178;-87
2023/08/03 00:57:52;;;;;;;5.88;2.00;;;19.60;99.90;;;;;;5083398;28;20466;-87
2023/08/03 01:00:18;;;;;;;3.87;1.80;;;19.60;99.90;;;;;;5085853;28;20180;-86
2023/08/03 01:02:44;;;;;;;3.60;1.70;;;19.10;99.90;;;;;;5088748;28;20269;-87
2023/08/03 01:05:09;;;;;;;3.87;2.63;;;19.20;99.90;;;;;;5071400;28;20196;-87
2023/08/03 01:07:35;;;;;;;4.43;2.17;;;20.50;99.90;;;;;;5086801;28;20204;-87
2023/08/03 01:10:01;;;;;;;5.83;1.90;;;19.50;99.90;;;;;;5094224;28;20887;-87
2023/08/03 01:12:27;;;;;;;5.68;1.85;;;19.30;99.90;;;;;;5112959;28;20185;-87
2023/08/03 01:14:53;;;;;;;3.10;1.70;;;18.90;99.90;;;;;;5101561;28;20234;-86
2023/08/03 01:17:20;;;;;;;7.60;2.10;;;19.40;99.90;;;;;;5100007;28;20204;-87
2023/08/03 01:19:45;;;;;;;4.28;1.98;;;19.50;99.90;;;;;;5089908;28;20180;-87
2023/08/03 01:22:13;;;;;;;3.63;1.70;;;19.00;99.90;;;;;;5123936;28;20223;-86
2023/08/03 01:24:39;;;;;;;3.83;1.65;;;19.50;99.90;;;;;;5104786;28;20192;-86
2023/08/03 01:27:05;;;;;;;5.80;2.13;;;18.90;99.90;;;;;;5102554;28;20247;-87
2023/08/03 01:29:31;;;;;;;4.20;1.88;;;18.90;99.90;;;;;;5111663;28;20973;-87
2023/08/03 01:31:59;;;;;;;4.68;1.75;;;19.50;99.90;;;;;;5103994;28;20190;-87
2023/08/03 01:34:25;;;;;;;4.45;1.50;;;19.40;99.90;;;;;;5098673;28;20207;-87
2023/08/03 01:36:53;;;;;;;3.83;2.03;;;18.90;99.90;;;;;;5083579;28;20200;-87
2023/08/03 01:39:20;;;;;;;5.65;1.70;;;18.60;99.90;;;;;;5087590;28;20180;-86
2023/08/03 01:41:46;;;;;;;5.15;1.60;;;19.40;99.90;;;;;;5083501;28;20228;-87
2023/08/03 01:44:25;;;;;;;3.05;1.48;;;19.00;99.90;;;;;;5086105;28;20188;-86
2023/08/03 01:46:53;;;;;;;7.55;1.92;;;19.60;99.90;;;;;;5087536;28;20200;-86
2023/08/03 01:49:19;;;;;;;4.00;1.67;;;19.00;99.90;;;;;;5086151;28;20184;-87
2023/08/03 01:51:45;;;;;;;3.72;1.52;;;19.10;99.90;;;;;;5088013;28;20192;-87
2023/08/03 01:54:12;;;;;;;2.70;1.50;;;19.50;99.90;;;;;;5087929;28;20682;-87
2023/08/03 01:56:37;;;;;;;4.85;1.70;;;19.30;99.90;;;;;;5087172;28;20221;-87
2023/08/03 01:59:03;;;;;;;3.23;1.37;;;19.30;99.90;;;;;;5087725;28;20264;-87
2023/08/03 02:01:29;;;;;;;4.27;1.90;;;20.00;99.90;;;;;;5084089;28;20513;-87
2023/08/03 02:03:55;;;;;;;4.90;1.80;;;19.40;99.90;;;;;;5085054;28;20974;-87
2023/08/03 02:06:21;;;;;;;2.93;1.47;;;18.80;99.90;;;;;;5085825;28;20755;-87
2023/08/03 02:08:46;;;;;;;6.30;1.87;;;19.80;99.90;;;;;;5088580;28;20306;-87
2023/08/03 02:11:12;;;;;;;4.80;1.40;;;18.90;99.90;;;;;;5091224;28;20579;-87
2023/08/03 02:13:37;;;;;;;1.93;0.97;;;19.20;99.90;;;;;;5099281;28;20200;-87
2023/08/03 02:16:04;;;;;;;3.47;1.87;;;18.70;99.90;;;;;;5087493;28;20196;-87
2023/08/03 02:18:30;;;;;;;2.65;1.30;;;18.90;99.90;;;;;;5084745;28;20184;-88
2023/08/03 02:20:56;;;;;;;5.43;1.55;;;19.20;99.90;;;;;;5085720;28;20187;-87
2023/08/03 02:23:22;;;;;;;3.25;1.10;;;19.30;99.90;;;;;;5085406;28;20834;-87
2023/08/03 02:25:50;;;;;;;2.33;1.17;;;18.90;99.90;;;;;;5070885;28;20188;-87
2023/08/03 02:28:15;;;;;;;4.93;1.65;;;19.20;99.90;;;;;;5089410;28;20581;-87
2023/08/03 02:30:41;;;;;;;7.40;1.63;;;19.10;99.90;;;;;;5091864;28;20222;-87
2023/08/03 02:33:06;;;;;;;3.87;1.60;;;20.10;99.90;;;;;;5087812;28;20172;-87
2023/08/03 02:35:34;;;;;;;16.53;2.20;;;19.10;99.90;;;;;;5092441;28;20177;-87
2023/08/03 02:37:59;;;;;;;3.10;1.30;;;19.40;99.90;;;;;;5091967;28;20288;-87
2023/08/03 02:40:25;;;;;;;6.13;1.80;;;19.20;99.90;;;;;;5088908;28;20259;-87
2023/08/03 02:42:50;;;;;;;4.43;1.90;;;19.30;99.90;;;;;;5070990;28;20203;-87
2023/08/03 02:45:16;;;;;;;3.73;1.50;;;18.90;99.90;;;;;;5090158;28;20188;-87
2023/08/03 02:47:41;;;;;;;3.00;1.40;;;18.60;99.90;;;;;;5091027;28;20204;-87
2023/08/03 02:50:07;;;;;;;3.57;1.43;;;18.50;99.90;;;;;;5095036;23;20232;-85
2023/08/03 02:52:33;;;;;;;2.80;1.53;;;18.70;99.90;;;;;;5057436;28;20267;-85
2023/08/03 02:54:58;;;;;;;3.90;1.40;;;18.70;99.90;;;;;;5053856;28;20462;-86
2023/08/03 02:57:24;;;;;;;4.10;1.47;;;18.70;99.90;;;;;;5071170;28;20206;-86
2023/08/03 02:59:49;;;;;;;4.10;1.63;;;18.60;99.90;;;;;;5050877;28;20279;-86
2023/08/03 03:02:15;;;;;;;2.70;1.43;;;18.60;99.90;;;;;;5068942;28;20541;-86
2023/08/03 03:04:40;;;;;;;4.23;1.70;;;18.60;99.90;;;;;;5053318;28;20184;-86
2023/08/03 03:07:06;;;;;;;8.03;1.83;;;18.40;99.90;;;;;;5048841;28;20223;-87
2023/08/03 03:09:31;;;;;;;6.73;2.20;;;19.00;99.90;;;;;;5054541;28;20192;-86
2023/08/03 03:11:57;;;;;;;3.83;1.40;;;18.50;99.90;;;;;;5054829;28;20222;-86
2023/08/03 03:14:25;;;;;;;4.03;1.73;;;18.10;99.90;;;;;;5048971;28;20196;-87
2023/08/03 03:16:50;;;;;;;5.00;1.67;;;18.40;99.90;;;;;;5058462;28;20204;-86
2023/08/03 03:19:16;;;;;;;4.00;1.73;;;18.70;99.90;;;;;;5048566;28;20185;-86
2023/08/03 03:21:41;;;;;;;5.03;1.77;;;18.30;99.90;;;;;;5055879;28;20203;-86
2023/08/03 03:24:07;;;;;;;3.03;1.77;;;19.00;99.90;;;;;;5054510;28;20562;-86
2023/08/03 03:26:32;;;;;;;4.73;1.70;;;19.50;99.90;;;;;;5053717;28;20215;-86
2023/08/03 03:28:58;;;;;;;4.63;1.47;;;18.60;99.90;;;;;;5049667;28;20201;-87
2023/08/03 03:31:23;;;;;;;5.30;1.87;;;18.80;99.90;;;;;;5061438;28;20331;-86
2023/08/03 03:33:49;;;;;;;6.00;2.07;;;18.30;99.90;;;;;;5051084;28;20204;-86
2023/08/03 03:36:14;;;;;;;6.53;2.00;;;18.50;99.90;;;;;;5055103;28;20204;-87
2023/08/03 03:38:40;;;;;;;3.30;1.33;;;18.70;99.90;;;;;;5047922;28;20184;-87
2023/08/03 03:41:05;;;;;;;7.40;1.73;;;18.70;99.90;;;;;;5053699;28;20181;-87
2023/08/03 03:43:31;;;;;;;5.87;2.17;;;18.60;99.90;;;;;;5051892;28;20239;-87
2023/08/03 03:45:56;;;;;;;4.13;1.40;;;18.60;99.90;;;;;;5056056;28;20296;-85
2023/08/03 03:48:22;;;;;;;6.20;2.00;;;18.60;99.90;;;;;;5064518;28;20237;-86
2023/08/03 03:50:47;;;;;;;2.73;1.77;;;18.60;99.90;;;;;;5060759;28;20694;-87
2023/08/03 03:53:13;;;;;;;4.53;1.80;;;18.60;99.90;;;;;;5048497;28;20185;-86
2023/08/03 03:55:38;;;;;;;4.53;1.77;;;18.60;99.90;;;;;;5052203;28;20280;-86
2023/08/03 03:58:04;;;;;;;5.20;2.17;;;18.00;99.90;;;;;;5051117;28;20183;-86
2023/08/03 04:00:29;;;;;;;3.90;1.90;;;18.40;99.90;;;;;;5047400;28;20177;-87
2023/08/03 04:02:55;;;;;;;6.10;2.03;;;18.50;99.90;;;;;;5055246;28;20200;-86
2023/08/03 04:05:20;;;;;;;4.43;1.80;;;18.60;99.90;;;;;;5071333;28;20189;-86
2023/08/03 04:07:46;;;;;;;4.07;1.70;;;18.50;99.90;;;;;;5050224;28;20212;-86
2023/08/03 04:10:12;;;;;;;3.60;1.67;;;18.20;99.90;;;;;;5049450;28;20192;-86
2023/08/03 04:12:37;;;;;;;3.50;1.33;;;18.20;99.90;;;;;;5065493;28;20193;-86
2023/08/03 04:15:03;;;;;;;2.37;1.30;;;18.40;99.90;;;;;;5053535;28;20770;-86
2023/08/03 04:17:28;;;;;;;4.43;1.63;;;18.20;99.90;;;;;;5047435;28;20232;-86
2023/08/03 04:19:54;;;;;;;3.50;1.40;;;17.90;99.90;;;;;;5048285;28;20461;-86
2023/08/03 04:22:19;;;;;;;3.67;1.40;;;18.50;99.90;;;;;;5049288;28;20216;-86
2023/08/03 04:24:45;;;;;;;3.60;1.37;;;18.10;99.90;;;;;;5055152;28;20732;-85
2023/08/03 04:27:10;;;;;;;4.73;1.27;;;18.20;99.90;;;;;;5054020;28;20211;-86
2023/08/03 04:29:36;;;;;;;2.50;1.27;;;18.10;99.90;;;;;;5051702;28;20177;-86
2023/08/03 04:32:01;;;;;;;3.77;1.50;;;18.40;99.90;;;;;;5054321;28;20662;-87
2023/08/03 04:34:27;;;;;;;3.00;1.63;;;18.30;99.90;;;;;;5051308;28;20212;-86
2023/08/03 04:36:52;;;;;;;3.37;1.70;;;18.20;99.90;;;;;;5050963;28;20255;-87
2023/08/03 04:39:18;;;;;;;3.87;1.37;;;18.60;99.90;;;;;;5049586;28;20188;-86
2023/08/03 04:41:43;;;;;;;2.63;1.30;;;18.10;99.90;;;;;;5051410;28;20293;-87
2023/08/03 04:44:09;;;;;;;4.77;1.10;;;18.50;99.90;;;;;;5048281;28;20338;-86
2023/08/03 04:46:34;;;;;;;1.37;0.80;;;18.40;99.90;;;;;;5051725;28;20689;-86
2023/08/03 04:49:00;;;;;;;3.73;1.10;;;18.60;99.90;;;;;;5050492;28;20177;-87
2023/08/03 04:51:25;;;;;;;2.70;0.80;;;18.60;99.90;;;;;;5051104;28;20196;-87
2023/08/03 04:53:51;;;;;;;1.93;0.90;;;18.30;99.90;;;;;;5056133;28;20561;-87
2023/08/03 04:56:16;;;;;;;1.70;0.90;;;18.40;99.90;;;;;;5050580;28;20574;-86
2023/08/03 04:58:42;;;;;;;3.83;1.07;;;18.70;99.90;;;;;;5053173;28;20181;-87
2023/08/03 05:01:07;;;;;;;2.47;1.13;;;18.30;99.90;;;;;;5047862;28;20184;-86
2023/08/03 05:03:33;;;;;;;3.77;0.93;;;18.80;99.90;;;;;;5052990;28;20188;-87
2023/08/03 05:05:58;;;;;;;2.87;0.97;;;18.80;99.90;;;;;;5058049;28;20216;-86
2023/08/03 05:08:24;;;;;;;3.27;0.90;;;18.40;99.90;;;;;;5052461;28;20236;-86
2023/08/03 05:10:50;;;;;;;5.53;0.90;;;18.40;99.90;;;;;;5049381;28;20181;-87
2023/08/03 05:13:17;;;;;;;2.20;0.83;;;18.50;99.90;;;;;;5061244;28;20509;-87
2023/08/03 05:15:43;;;;;;;1.70;0.80;;;19.00;99.90;;;;;;5070890;28;20621;-87
2023/08/03 05:18:09;;;;;;;2.13;0.80;;;18.90;99.90;;;;;;5055094;28;20212;-85
2023/08/03 05:20:34;;;;;;;4.30;0.97;;;18.70;99.90;;;;;;5077099;28;20206;-83
2023/08/03 05:23:00;;;;;;;3.17;1.20;;;19.10;99.90;;;;;;5059727;28;20203;-84
2023/08/03 05:25:25;;;;;;;2.37;0.90;;;19.00;99.90;;;;;;5052477;28;20657;-83
2023/08/03 05:27:51;;;;;;;4.43;1.10;;;19.20;99.90;;;;;;5055986;28;20236;-88
2023/08/03 05:30:16;;;;;;;2.90;1.03;;;19.30;99.90;;;;;;5055789;28;20215;-84
2023/08/03 05:32:42;;;;;;;1.33;0.90;;;18.80;99.90;;;;;;5064050;28;20218;-85
2023/08/03 05:35:07;;;;;;;1.70;1.10;;;19.40;99.90;;;;;;5054454;28;20216;-85
2023/08/03 05:37:33;;;;;;;2.40;1.03;;;19.20;99.90;;;;;;5065656;28;20294;-84
2023/08/03 05:40:04;;;;;;;2.20;1.07;;;18.80;99.90;;;;;;5063725;28;20189;-85
2023/08/03 05:42:40;;;;;;;2.88;1.10;;;18.80;99.90;;;;;;5059692;28;20641;-85
2023/08/03 05:45:10;;;;;;;2.67;1.25;;;18.80;99.90;;;;;;5075597;28;20184;-84
2023/08/03 05:47:38;;;;;;;2.47;1.00;;;18.80;99.90;;;;;;5059015;28;20315;-85
2023/08/03 05:50:13;;;;;;;1.60;0.90;;;18.90;99.90;;;;;;5057788;28;20637;-84
2023/08/03 05:52:39;;;;;;;2.10;1.00;;;18.90;99.90;;;;;;5055474;28;20218;-82
2023/08/03 05:55:09;;;;;;;1.20;0.85;;;18.90;99.90;;;;;;5073425;28;20208;-83
2023/08/03 05:57:34;;;;;;;1.65;0.95;;;19.00;99.90;;;;;;5050530;28;20221;-84
2023/08/03 06:00:00;;;;;;;2.13;1.10;;;19.30;99.90;;;;;;5062014;28;20184;-84
2023/08/03 06:02:33;;;;;;;4.27;1.10;;;19.30;99.90;;;;;;5055656;28;20199;-83
2023/08/03 06:04:58;;;;;;;2.75;1.10;;;19.20;99.90;;;;;;5063420;28;20812;-83
2023/08/03 06:07:25;;;;;;;2.07;1.10;;;19.50;99.90;;;;;;5057176;28;20213;-84
2023/08/03 06:09:51;;;;;;;1.85;1.20;;;19.30;99.90;;;;;;5063946;28;20213;-84
2023/08/03 06:12:18;;;;;;;3.07;1.10;;;19.60;99.90;;;;;;5067152;28;20189;-84
2023/08/03 06:14:44;;;;;;;1.95;0.90;;;19.20;99.90;;;;;;5061408;28;20288;-85
2023/08/03 06:17:11;;;;;;;3.78;1.23;;;19.20;99.90;;;;;;5062304;28;21166;-84
2023/08/03 06:19:36;;;;;;;1.60;0.90;;;19.20;99.90;;;;;;5069247;28;20202;-84
2023/08/03 06:22:04;;;;;;;2.60;1.27;;;19.60;99.90;;;;;;5064531;28;20731;-84
2023/08/03 06:24:30;;;;;;;1.35;0.93;;;19.30;99.90;;;;;;5069357;28;20196;-84
2023/08/03 06:26:57;;;;;;;2.90;1.00;;;19.90;99.90;;;;;;5066877;28;20227;-83
2023/08/03 06:29:23;;;;;;;3.20;1.15;;;19.90;99.90;;;;;;5063375;28;20184;-84
2023/08/03 06:31:49;;;;;;;2.80;1.13;;;19.60;99.80;;;;;;5061609;28;20188;-84
2023/08/03 06:34:15;;;;;;;3.80;1.55;;;19.90;99.80;;;;;;5058773;28;20201;-85
2023/08/03 06:36:42;;;;;;;1.73;0.90;;;20.10;99.40;;;;;;5058948;28;20724;-84
2023/08/03 06:39:08;;;;;;;1.70;0.93;;;19.90;98.80;;;;;;5059280;28;20184;-84
2023/08/03 06:41:33;;;;;;;3.13;1.20;;;20.00;98.50;;;;;;5078197;28;20207;-85
2023/08/03 06:44:00;;;;;;;2.90;1.40;;;19.90;98.10;;;;;;5056098;28;20193;-85
2023/08/03 06:46:26;;;;;;;3.83;1.60;;;19.90;97.60;;;;;;5078885;28;21571;-84
2023/08/03 06:48:52;;;;;;;7.75;2.45;;;20.00;97.80;;;;;;5075057;28;20185;-86
2023/08/03 06:51:18;;;;;;;2.17;1.10;;;19.80;97.50;;;;;;5059256;28;20200;-86
2023/08/03 06:53:44;;;;;;;3.00;1.00;;;20.00;96.60;;;;;;5055795;28;20455;-83
2023/08/03 06:56:09;;;;;;;1.70;1.10;;;19.60;95.60;;;;;;5054920;28;21389;-83
2023/08/03 06:58:35;;;;;;;1.97;1.03;;;20.10;95.20;;;;;;5034406;28;20193;-86
2023/08/03 07:01:00;;;;;;;3.80;1.20;;;20.10;94.20;;;;;;5052515;28;20193;-85
2023/08/03 07:03:26;;;;;;;1.63;1.40;;;20.40;93.90;;;;;;5053706;28;20280;-85
2023/08/03 07:05:51;;;;;;;2.10;1.10;;;20.50;94.00;;;;;;5061196;28;20184;-85
2023/08/03 07:08:17;;;;;;;2.17;1.00;;;20.50;94.00;;;;;;5076317;28;20320;-86
2023/08/03 07:10:43;;;;;;;2.17;1.00;;;20.60;93.80;;;;;;5057111;28;20263;-85
2023/08/03 07:13:08;;;;;;;2.03;0.90;;;20.70;93.00;;;;;;5058947;28;20237;-83
2023/08/03 07:15:34;;;;;;;1.23;0.80;;;21.10;91.90;;;;;;5068340;28;20212;-84
2023/08/03 07:18:04;;;;;;;2.80;0.93;;;22.20;91.00;;;;;;5061907;28;20420;-84
2023/08/03 07:20:30;;;;;;;1.63;0.97;;;24.60;87.80;;;;;;5061297;28;20438;-85
2023/08/03 07:22:56;;;;;;;1.33;0.67;;;26.80;79.10;;;;;;5056264;28;20442;-85
2023/08/03 07:25:22;;;;;;;2.03;1.30;;;27.80;74.20;;;;;;5060938;28;20510;-85
2023/08/03 07:27:48;;;;;;;0.90;0.80;;;28.60;69.40;;;;;;5061414;28;20528;-85
2023/08/03 07:30:13;;;;;;;1.87;0.93;;;28.00;66.50;;;;;;5059184;28;20434;-84
2023/08/03 07:32:39;;;;;;;4.03;0.90;;;28.10;65.00;;;;;;5058366;28;20733;-85
2023/08/03 07:35:05;;;;;;;2.43;0.97;;;28.80;63.60;;;;;;5053499;28;20222;-85
2023/08/03 07:37:30;;;;;;;2.80;1.80;;;28.90;60.40;;;;;;5068359;28;20282;-85
2023/08/03 07:39:57;;;;;;;3.73;0.87;;;29.40;60.50;;;;;;5062321;28;20437;-86
2023/08/03 07:42:22;;;;;;;1.40;0.90;;;29.70;58.60;;;;;;5052079;28;20201;-86
2023/08/03 07:44:51;;;;;;;2.07;0.90;;;29.60;58.70;;;;;;5061004;28;20630;-84
2023/08/03 07:47:16;;;;;;;2.00;1.17;;;29.40;58.80;;;;;;5054507;28;20322;-84
2023/08/03 07:49:42;;;;;;;1.40;0.90;;;29.00;58.90;;;;;;5056650;28;20934;-85
2023/08/03 07:52:07;;;;;;;1.40;0.90;;;29.70;57.60;;;;;;5058268;28;20197;-86
2023/08/03 07:54:33;;;;;;;2.13;0.97;;;31.30;56.80;;;;;;5057076;28;20210;-84
2023/08/03 07:56:58;;;;;;;1.80;1.20;;;31.90;55.00;;;;;;5055104;28;20564;-85
2023/08/03 07:59:24;;;;;;;2.50;1.00;;;31.10;52.90;;;;;;5072848;28;20196;-85
2023/08/03 08:01:49;;;;;;;1.50;0.87;;;31.80;54.00;;;;;;5051167;28;20268;-86
2023/08/03 08:04:17;;;;;;;2.17;1.03;;;31.10;54.10;;;;;;5062463;28;20650;-85
2023/08/03 08:06:42;;;;;;;3.20;1.37;;;31.90;52.70;;;;;;5055314;28;20289;-84
2023/08/03 08:09:08;;;;;;;1.60;1.00;;;32.50;50.90;;;;;;5047624;28;20526;-85
2023/08/03 08:11:33;;;;;;;2.00;0.90;;;32.60;50.20;;;;;;5079603;28;20181;-86
2023/08/03 08:13:59;;;;;;;2.23;1.00;;;32.40;49.80;;;;;;5050893;28;20850;-85
2023/08/03 08:16:25;;;;;;;2.20;1.40;;;32.10;50.60;;;;;;5060138;28;20315;-86
2023/08/03 08:18:51;;;;;;;2.37;1.00;;;32.10;51.40;;;;;;5058144;28;20433;-86
2023/08/03 08:21:16;;;;;;;1.83;1.10;;;30.50;52.40;;;;;;5050583;28;20580;-85
2023/08/03 08:23:42;;;;;;;1.30;0.80;;;29.60;53.60;;;;;;5060702;28;20211;-84
2023/08/03 08:26:15;;;;;;;1.47;0.80;;;29.50;55.50;;;;;;5061999;28;20288;-85
2023/08/03 08:28:42;;;;;;;1.57;1.13;;;29.60;54.70;;;;;;5063926;28;20214;-85
2023/08/03 08:31:08;;;;;;;2.53;1.13;;;30.90;52.20;;;;;;5049610;28;20444;-86
2023/08/03 08:33:34;;;;;;;1.33;0.90;;;30.20;52.90;;;;;;5061255;28;20540;-85
2023/08/03 08:35:59;;;;;;;1.23;0.70;;;29.40;54.50;;;;;;5069142;28;20578;-85
2023/08/03 08:38:25;;;;;;;3.27;0.80;;;28.60;56.10;;;;;;5057753;28;20202;-86
2023/08/03 08:40:51;;;;;;;2.10;0.90;;;27.40;57.30;;;;;;5056238;28;20258;-84
2023/08/03 08:43:18;;;;;;;1.73;1.20;;;26.50;59.50;;;;;;5053969;28;20438;-87
2023/08/03 08:45:44;;;;;;;1.87;0.80;;;25.50;63.60;;;;;;5031761;28;20184;-87
2023/08/03 08:48:10;;;;;;;1.33;0.97;;;25.40;64.20;;;;;;5057993;28;20444;-85
2023/08/03 08:50:36;;;;;;;3.47;0.93;;;25.50;64.60;;;;;;5053720;28;20814;-85
2023/08/03 08:53:01;;;;;;;2.07;1.50;;;26.10;62.40;;;;;;5053007;28;20439;-82
2023/08/03 08:55:29;;;;;;;2.63;0.90;;;26.10;62.70;;;;;;5051485;28;20212;-84
2023/08/03 08:57:56;;;;;;;1.77;1.07;;;25.90;63.20;;;;;;5049426;28;20203;-82
2023/08/03 09:00:25;;;;;;;1.47;0.80;;;26.50;64.60;;;;;;5060272;28;20450;-83
2023/08/03 09:03:00;;;;;;;2.37;0.80;;;27.40;62.30;;;;;;5056785;28;20477;-84
2023/08/03 09:05:27;;;;;;;1.40;0.90;;;26.90;61.10;;;;;;5059749;28;20438;-82
2023/08/03 09:08:00;;;;;;;2.70;0.80;;;26.00;61.40;;;;;;5069265;28;20470;-82
2023/08/03 09:10:26;;;;;;;1.27;0.90;;;25.50;63.40;;;;;;5047706;28;20447;-82
2023/08/03 09:12:51;;;;;;;0.90;0.70;;;25.20;63.90;;;;;;5051123;28;20448;-81
2023/08/03 09:15:17;;;;;;;1.63;0.87;;;24.80;65.80;;;;;;5079489;28;20197;-82
2023/08/03 09:17:46;;;;;;;3.47;1.20;;;24.80;66.60;;;;;;5056729;28;20218;-81
2023/08/03 09:20:25;;;;;;;1.90;0.70;;;24.80;68.00;;;;;;5061167;28;20200;-82
2023/08/03 09:22:51;;;;;;;1.30;0.80;;;25.30;66.40;;;;;;5058161;28;20447;-81
2023/08/03 09:25:16;;;;;;;0.80;0.70;;;26.10;65.90;;;;;;5063545;28;20535;-81
2023/08/03 09:27:51;;;;;;;0.90;0.80;;;26.30;64.20;;;;;;5049540;28;20238;-81
2023/08/03 09:30:17;;;;;;;1.47;0.60;;;26.00;64.40;;;;;;5058394;28;20542;-82
2023/08/03 09:32:43;;;;;;;1.80;1.00;;;25.10;64.80;;;;;;5051931;28;20440;-82
2023/08/03 09:35:25;;;;;;;1.17;0.70;;;25.20;65.40;;;;;;5054986;28;21322;-81
2023/08/03 09:37:55;;;;;;;1.70;0.70;;;24.90;66.20;;;;;;5058359;28;20870;-82
2023/08/03 09:40:23;;;;;;;1.83;0.63;;;24.70;66.40;;;;;;5063454;28;20437;-82
2023/08/03 09:42:49;;;;;;;1.80;0.93;;;24.60;67.10;;;;;;5060437;28;20550;-81
2023/08/03 09:45:15;;;;;;;1.63;0.77;;;25.20;68.70;;;;;;5059120;28;20481;-81
2023/08/03 09:47:41;;;;;;;0.90;0.80;;;25.00;67.70;;;;;;5063005;28;20236;-81
2023/08/03 09:50:08;;;;;;;1.20;0.80;;;25.30;66.20;;;;;;5059134;28;20445;-81
2023/08/03 09:52:42;;;;;;;0.90;0.80;;;25.10;66.50;;;;;;5057014;28;20447;-81
2023/08/03 09:55:13;;;;;;;1.20;0.70;;;25.00;69.10;;;;;;5055428;28;20463;-82
2023/08/03 09:58:19;;;;;;;1.13;0.60;;;24.10;69.70;;;;;;5056153;28;20471;-80
2023/08/03 10:00:45;;;;;;;3.53;1.63;;;24.90;69.00;;;;;;5061834;28;20439;-81
2023/08/03 10:03:15;;;;;;;1.23;0.80;;;25.60;67.50;;;;;;5060837;28;20813;-81
2023/08/03 10:05:48;;;;;;;1.47;0.90;;;26.00;65.60;;;;;;5076925;28;20960;-81
2023/08/03 10:08:30;;;;;;;2.20;1.00;;;25.70;66.10;;;;;;5081431;28;20428;-81
2023/08/03 10:11:03;;;;;;;1.00;0.60;;;25.70;66.80;;;;;;5051803;28;20434;-81
2023/08/03 10:13:34;;;;;;;0.97;0.70;;;24.80;68.40;;;;;;5059604;28;20443;-82
2023/08/03 10:16:02;;;;;;;1.77;0.70;;;24.60;69.80;;;;;;5058403;28;20458;-86
2023/08/03 10:18:30;;;;;;;1.33;0.80;;;24.00;70.40;;;;;;5090431;28;20854;-81
2023/08/03 10:20:57;;;;;;;3.13;0.60;;;23.80;70.60;;;;;;5057855;28;20802;-82
2023/08/03 10:23:22;;;;;;;1.50;0.80;;;23.40;72.30;;;;;;5048995;28;20565;-78
2023/08/03 10:25:50;;;;;;;1.97;0.90;;;23.70;74.10;;;;;;5050647;28;20437;-77
2023/08/03 10:28:15;;;;;;;1.90;0.77;;;22.90;74.80;;;;;;5054479;28;20204;-81
2023/08/03 10:31:11;;;;;;;1.37;0.90;;;23.10;75.60;;;;;;5048243;28;20548;-81
2023/08/03 10:33:52;;;;;;;2.50;0.90;;;23.30;75.50;;;;;;5054042;28;20232;-82
2023/08/03 10:36:29;;;;;;;0.87;0.77;;;23.30;74.40;;;;;;5072568;28;20510;-80
2023/08/03 10:39:03;;;;;;;2.80;1.20;;;23.30;75.00;;;;;;5092279;28;20442;-82
2023/08/03 10:41:36;;;;;;;1.07;0.90;;;23.40;75.30;;;;;;5077235;28;20493;-82
2023/08/03 10:44:12;;;;;;;1.00;0.80;;;23.40;75.10;;;;;;5094789;28;20460;-82
2023/08/03 10:46:49;;;;;;;0.97;0.70;;;23.00;74.40;;;;;;5078598;28;20492;-85
2023/08/03 10:49:21;;;;;;;1.47;0.90;;;23.20;75.00;;;;;;5096634;28;20456;-84
2023/08/03 10:52:16;;;;;;;1.83;0.77;;;23.10;74.70;;;;;;5099548;28;20457;-85
2023/08/03 10:54:43;;;;;;;1.60;0.73;;;23.20;75.30;;;;;;5073014;28;20519;-85
2023/08/03 10:57:11;;;;;;;2.87;1.00;;;23.70;75.60;;;;;;5080070;28;20526;-85
2023/08/03 10:59:45;;;;;;;3.40;1.00;;;23.40;75.50;;;;;;5097569;28;20434;-85
2023/08/03 11:02:21;;;;;;;2.83;0.80;;;23.60;74.80;;;;;;5080600;28;20446;-85
2023/08/03 11:04:51;;;;;;;1.20;0.83;;;23.80;74.00;;;;;;5084054;28;21041;-83
2023/08/03 11:07:25;;;;;;;1.47;1.20;;;23.90;73.80;;;;;;5063605;28;20464;-84
2023/08/03 11:09:52;;;;;;;1.37;0.90;;;24.20;73.30;;;;;;5076596;28;20819;-85
2023/08/03 11:12:18;;;;;;;1.53;0.63;;;24.30;73.20;;;;;;5076361;28;20565;-85
2023/08/03 11:14:45;;;;;;;1.57;0.70;;;24.90;72.30;;;;;;5092324;28;20471;-81
2023/08/03 11:17:13;;;;;;;2.40;1.00;;;24.70;71.50;;;;;;5078924;28;20208;-86
2023/08/03 11:19:38;;;;;;;1.90;1.07;;;25.40;71.50;;;;;;5073265;28;20440;-87
2023/08/03 11:22:05;;;;;;;1.10;0.80;;;25.60;68.90;;;;;;5071814;28;20442;-87
2023/08/03 11:24:33;;;;;;;2.30;1.13;;;25.70;67.50;;;;;;5079040;28;20652;-85
2023/08/03 11:26:59;;;;;;;3.23;0.80;;;25.70;67.70;;;;;;5070133;28;20595;-86
2023/08/03 11:29:25;;;;;;;1.10;0.80;;;26.00;67.00;;;;;;5071067;28;20835;-85
2023/08/03 11:31:51;;;;;;;2.20;1.00;;;25.40;67.00;;;;;;5072706;28;20502;-85
2023/08/03 11:34:16;;;;;;;1.00;0.80;;;25.40;67.30;;;;;;5074551;28;20499;-86
2023/08/03 11:36:50;;;;;;;1.10;0.73;;;25.70;67.90;;;;;;5075090;28;20202;-86
2023/08/03 11:39:18;;;;;;;1.13;0.60;;;25.80;69.40;;;;;;5081089;28;20253;-86
2023/08/03 11:41:44;;;;;;;1.10;0.87;;;25.90;69.10;;;;;;5070590;28;20437;-85
2023/08/03 11:44:10;;;;;;;0.80;0.60;;;25.70;68.60;;;;;;5071707;28;20961;-81
2023/08/03 11:46:36;;;;;;;2.13;1.00;;;25.70;67.20;;;;;;5072710;28;20527;-81
2023/08/03 11:49:02;;;;;;;1.00;0.70;;;25.90;67.10;;;;;;5071030;28;20236;-82
2023/08/03 11:51:36;;;;;;;1.30;0.70;;;26.30;66.30;;;;;;5076596;28;20558;-81
2023/08/03 11:54:06;;;;;;;1.63;0.70;;;26.20;66.90;;;;;;5075567;28;20473;-81
2023/08/03 11:56:36;;;;;;;1.43;0.80;;;26.30;67.40;;;;;;5087811;28;20822;-82
2023/08/03 11:59:09;;;;;;;1.80;0.70;;;27.30;66.60;;;;;;5075736;28;20481;-80
2023/08/03 12:01:49;;;;;;;1.27;0.73;;;27.10;65.20;;;;;;5099942;28;20434;-81
2023/08/03 12:04:16;;;;;;;2.67;1.37;;;26.50;65.50;;;;;;5077518;28;20447;-81
2023/08/03 12:06:52;;;;;;;3.33;0.83;;;26.50;66.60;;;;;;5076770;28;20825;-81
2023/08/03 12:09:26;;;;;;;0.97;0.60;;;26.40;66.90;;;;;;5063727;28;20832;-82
2023/08/03 12:12:03;;;;;;;1.63;0.70;;;26.10;66.50;;;;;;5067173;28;20491;-81
2023/08/03 12:14:29;;;;;;;1.20;0.80;;;25.90;67.90;;;;;;5082096;28;20468;-81
2023/08/03 12:16:54;;;;;;;2.40;0.80;;;25.70;68.20;;;;;;5070857;28;20833;-81
2023/08/03 12:19:20;;;;;;;2.50;1.10;;;25.40;68.90;;;;;;5076184;28;20207;-81
2023/08/03 12:21:46;;;;;;;1.80;0.90;;;25.40;69.00;;;;;;5074346;28;20203;-81
2023/08/03 12:24:12;;;;;;;1.83;0.90;;;25.30;68.50;;;;;;5076902;28;20481;-81
2023/08/03 12:26:38;;;;;;;1.97;1.10;;;25.20;68.40;;;;;;5074908;28;20202;-82
2023/08/03 12:29:04;;;;;;;3.73;0.70;;;25.20;68.60;;;;;;5072663;28;20220;-84
2023/08/03 12:31:30;;;;;;;1.00;0.70;;;25.00;68.60;;;;;;5071911;28;20224;-86
2023/08/03 12:33:56;;;;;;;1.93;0.73;;;25.00;68.90;;;;;;5077489;28;20500;-85
2023/08/03 12:36:22;;;;;;;1.10;0.90;;;24.90;69.50;;;;;;5095396;28;20524;-85
2023/08/03 12:38:48;;;;;;;1.27;1.00;;;24.80;70.20;;;;;;5076961;28;20979;-85
2023/08/03 12:41:14;;;;;;;1.83;0.83;;;25.10;70.50;;;;;;5074711;28;20497;-85
2023/08/03 12:43:40;;;;;;;1.80;0.90;;;25.00;71.80;;;;;;5070393;28;20739;-85
2023/08/03 12:46:05;;;;;;;1.60;0.70;;;24.70;71.80;;;;;;5077586;28;20200;-86
2023/08/03 12:48:31;;;;;;;1.53;0.77;;;24.90;71.20;;;;;;5074817;28;20453;-82